createdAt,value
2023-02-09T00:01:20.155Z,13.73
2023-02-09T00:03:48.745Z,10.82
2023-02-09T00:06:19.411Z,11.77
2023-02-09T00:08:47.331Z,12.80
2023-02-09T00:11:50.389Z,12.55
2023-02-09T00:14:21.979Z,11.05
2023-02-09T00:16:51.303Z,13.32
2023-02-09T00:19:20.300Z,14.23
2023-02-09T00:21:49.012Z,14.35
2023-02-09T00:24:16.838Z,14.38
2023-02-09T00:26:44.920Z,12.65
2023-02-09T00:29:13.270Z,13.15
2023-02-09T00:31:41.453Z,13.40
2023-02-09T00:34:10.500Z,13.32
2023-02-09T00:36:38.304Z,13.10
2023-02-09T00:39:05.995Z,13.98
2023-02-09T00:41:52.499Z,13.15
2023-02-09T00:44:20.405Z,12.98
2023-02-09T00:46:49.263Z,13.75
2023-02-09T00:49:17.200Z,13.02
2023-02-09T00:51:45.323Z,14.05
2023-02-09T00:54:14.012Z,13.02
2023-02-09T00:56:41.632Z,12.80
2023-02-09T00:59:09.335Z,13.45
2023-02-09T01:01:37.247Z,13.45
2023-02-09T01:04:05.781Z,12.95
2023-02-09T01:06:33.624Z,14.63
2023-02-09T01:09:02.481Z,13.73
2023-02-09T01:11:30.971Z,12.63
2023-02-09T01:14:01.392Z,12.02
2023-02-09T01:16:32.704Z,11.32
2023-02-09T01:19:02.433Z,13.65
2023-02-09T01:21:31.611Z,10.80
2023-02-09T01:23:59.660Z,11.57
2023-02-09T01:26:27.405Z,11.30
2023-02-09T01:28:55.223Z,11.93
2023-02-09T01:31:29.544Z,12.55
2023-02-09T01:33:58.995Z,13.20
2023-02-09T01:36:27.845Z,12.32
2023-02-09T01:38:57.693Z,13.45
2023-02-09T01:41:26.087Z,11.32
2023-02-09T01:44:00.471Z,12.63
2023-02-09T01:46:31.047Z,11.02
2023-02-09T01:49:05.007Z,11.27
2023-02-09T01:51:37.706Z,10.90
2023-02-09T01:54:13.438Z,12.02
2023-02-09T01:56:44.964Z,10.70
2023-02-09T01:59:14.637Z,11.02
2023-02-09T02:01:43.133Z,11.27
2023-02-09T02:04:11.569Z,15.13
2023-02-09T02:06:40.099Z,13.20
2023-02-09T02:09:14.748Z,14.10
2023-02-09T02:11:45.951Z,14.55
2023-02-09T02:14:39.197Z,14.45
2023-02-09T02:17:28.092Z,15.63
2023-02-09T02:20:23.539Z,13.32
2023-02-09T02:23:08.617Z,12.00
2023-02-09T02:26:20.614Z,15.00
2023-02-09T02:29:25.406Z,13.32
2023-02-09T02:32:19.196Z,15.23
2023-02-09T02:34:55.678Z,13.40
2023-02-09T02:38:08.479Z,12.15
2023-02-09T02:40:52.135Z,11.70
2023-02-09T02:43:42.697Z,15.02
2023-02-09T02:46:16.553Z,16.10
2023-02-09T02:48:56.305Z,12.05
2023-02-09T02:51:29.515Z,13.32
2023-02-09T02:54:04.296Z,14.32
2023-02-09T02:56:40.082Z,12.07
2023-02-09T02:59:13.671Z,14.00
2023-02-09T03:01:47.373Z,13.48
2023-02-09T03:04:17.319Z,14.65
2023-02-09T03:06:45.081Z,15.45
2023-02-09T03:09:12.798Z,14.02
2023-02-09T03:11:48.241Z,16.05
2023-02-09T03:20:42.337Z,13.80
2023-02-09T03:23:22.061Z,13.50
2023-02-09T03:25:53.439Z,16.25
2023-02-09T03:28:27.737Z,15.07
2023-02-09T03:30:56.495Z,13.68
2023-02-09T03:33:27.652Z,13.75
2023-02-09T03:35:59.088Z,12.88
2023-02-09T03:38:27.094Z,14.65
2023-02-09T03:40:55.703Z,14.68
2023-02-09T03:43:43.584Z,14.23
2023-02-09T03:46:11.326Z,12.95
2023-02-09T03:48:39.311Z,13.50
2023-02-09T03:51:08.011Z,17.45
2023-02-09T03:53:37.567Z,13.13
2023-02-09T03:56:05.838Z,14.30
2023-02-09T03:58:33.520Z,16.23
2023-02-09T04:01:11.776Z,12.55
2023-02-09T04:03:40.988Z,15.20
2023-02-09T04:06:11.198Z,16.40
2023-02-09T04:08:39.247Z,13.07
2023-02-09T04:11:07.067Z,14.30
2023-02-09T04:13:34.859Z,15.95
2023-02-09T04:16:02.779Z,15.70
2023-02-09T04:18:30.468Z,15.60
2023-02-09T04:20:58.412Z,16.67
2023-02-09T04:23:26.110Z,13.40
2023-02-09T04:25:53.768Z,15.98
2023-02-09T04:28:21.491Z,14.05
2023-02-09T04:30:56.831Z,14.35
2023-02-09T04:33:26.036Z,15.10
2023-02-09T04:35:54.145Z,15.30
2023-02-09T04:38:23.111Z,15.65
2023-02-09T04:40:52.819Z,14.05
2023-02-09T04:43:21.115Z,15.73
2023-02-09T04:45:49.422Z,14.70
2023-02-09T04:48:19.737Z,14.50
2023-02-09T04:50:47.807Z,15.73
2023-02-09T04:53:16.549Z,14.80
2023-02-09T04:55:46.221Z,13.75
2023-02-09T04:58:35.414Z,14.23
2023-02-09T05:01:03.780Z,13.95
2023-02-09T05:03:31.990Z,16.05
2023-02-09T05:06:03.816Z,15.48
2023-02-09T05:08:32.211Z,15.32
2023-02-09T05:11:00.322Z,14.38
2023-02-09T05:13:28.441Z,14.85
2023-02-09T05:15:56.415Z,14.02
2023-02-09T05:18:26.138Z,16.90
2023-02-09T05:20:53.931Z,15.05
2023-02-09T05:23:21.655Z,14.60
2023-02-09T05:25:49.532Z,15.88
2023-02-09T05:28:17.280Z,16.48
2023-02-09T05:30:45.386Z,16.83
2023-02-09T05:33:13.464Z,16.05
2023-02-09T05:35:41.238Z,16.60
2023-02-09T05:38:09.008Z,15.05
2023-02-09T05:40:36.753Z,16.30
2023-02-09T05:43:04.664Z,16.10
2023-02-09T05:45:32.303Z,15.75
2023-02-09T05:48:00.098Z,17.27
2023-02-09T05:50:27.876Z,16.73
2023-02-09T05:52:55.613Z,16.55
2023-02-09T05:55:23.358Z,16.42
2023-02-09T05:57:51.055Z,17.10
2023-02-09T06:00:18.957Z,14.55
2023-02-09T06:02:46.746Z,16.75
2023-02-09T06:05:14.556Z,16.05
2023-02-09T06:07:42.265Z,15.63
2023-02-09T06:10:10.332Z,15.90
2023-02-09T06:12:39.284Z,13.45
2023-02-09T06:15:08.234Z,14.00
2023-02-09T06:17:35.932Z,14.48
2023-02-09T06:20:04.178Z,14.95
2023-02-09T06:22:32.845Z,17.35
2023-02-09T06:25:00.636Z,14.82
2023-02-09T06:27:28.424Z,16.42
2023-02-09T06:29:56.227Z,19.62
2023-02-09T06:32:24.001Z,15.68
2023-02-09T06:34:51.869Z,16.55
2023-02-09T06:37:19.602Z,14.90
2023-02-09T06:39:47.328Z,14.57
2023-02-09T06:42:15.136Z,18.85
2023-02-09T06:44:42.824Z,18.98
2023-02-09T06:47:10.573Z,14.77
2023-02-09T06:49:38.349Z,16.80
2023-02-09T06:52:06.692Z,16.77
2023-02-09T06:54:34.601Z,16.17
2023-02-09T06:57:02.325Z,18.27
2023-02-09T06:59:30.089Z,18.45
2023-02-09T07:01:57.955Z,18.33
2023-02-09T07:04:25.714Z,20.08
2023-02-09T07:06:53.440Z,15.82
2023-02-09T07:09:21.078Z,16.98
2023-02-09T07:11:48.829Z,17.05
2023-02-09T07:14:16.525Z,17.77
2023-02-09T07:16:44.239Z,16.48
2023-02-09T07:19:12.118Z,16.30
2023-02-09T07:21:39.861Z,16.02
2023-02-09T07:24:07.784Z,17.33
2023-02-09T07:26:35.651Z,16.70
2023-02-09T07:29:03.317Z,17.77
2023-02-09T07:31:31.748Z,15.73
2023-02-09T07:33:59.610Z,13.48
2023-02-09T07:36:27.351Z,14.32
2023-02-09T07:38:56.483Z,13.77
2023-02-09T07:41:28.932Z,19.25
2023-02-09T07:43:57.664Z,16.15
2023-02-09T07:46:26.699Z,18.60
2023-02-09T07:48:54.499Z,17.75
2023-02-09T07:51:26.590Z,15.05
2023-02-09T07:53:54.812Z,19.42
2023-02-09T07:56:23.791Z,17.77
2023-02-09T07:58:51.838Z,17.08
2023-02-09T08:01:20.959Z,16.08
2023-02-09T08:03:50.730Z,16.73
2023-02-09T08:06:42.518Z,17.10
2023-02-09T08:09:11.775Z,18.12
2023-02-09T08:11:45.985Z,18.67
2023-02-09T08:14:44.167Z,17.75
2023-02-09T08:17:22.237Z,18.05
2023-02-09T08:20:05.812Z,17.52
2023-02-09T08:22:39.948Z,14.45
2023-02-09T08:25:08.420Z,16.73
2023-02-09T08:27:38.579Z,17.52
2023-02-09T08:30:06.761Z,17.08
2023-02-09T08:32:34.503Z,17.75
2023-02-09T08:35:02.208Z,19.37
2023-02-09T08:37:30.272Z,17.02
2023-02-09T08:39:58.457Z,17.27
2023-02-09T08:42:26.296Z,17.42
2023-02-09T08:44:53.981Z,17.50
2023-02-09T08:47:21.633Z,18.85
2023-02-09T08:49:49.977Z,21.23
2023-02-09T08:52:18.452Z,17.92
2023-02-09T08:54:47.553Z,17.98
2023-02-09T08:57:15.320Z,15.88
2023-02-09T08:59:43.039Z,16.65
2023-02-09T09:02:10.885Z,16.27
2023-02-09T09:04:38.676Z,18.35
2023-02-09T09:07:06.566Z,16.90
2023-02-09T09:09:34.362Z,18.67
2023-02-09T09:12:02.267Z,15.88
2023-02-09T09:14:30.037Z,18.55
2023-02-09T09:16:59.520Z,18.67
2023-02-09T09:19:29.672Z,16.90
2023-02-09T09:22:04.373Z,20.17
2023-02-09T09:24:32.838Z,19.02
2023-02-09T09:27:00.525Z,16.75
2023-02-09T09:29:28.254Z,16.33
2023-02-09T09:31:56.191Z,15.77
2023-02-09T09:34:23.952Z,18.50
2023-02-09T09:36:51.731Z,18.60
2023-02-09T09:39:20.074Z,19.50
2023-02-09T09:41:51.307Z,16.62
2023-02-09T09:44:53.010Z,16.62
2023-02-09T09:47:34.257Z,17.92
2023-02-09T09:50:02.006Z,19.12
2023-02-09T09:52:37.841Z,16.60
2023-02-09T09:55:09.428Z,19.73
2023-02-09T09:57:42.958Z,18.67
2023-02-09T10:00:25.474Z,20.52
2023-02-09T10:02:53.708Z,18.02
2023-02-09T10:05:30.787Z,18.75
2023-02-09T10:08:11.843Z,17.67
2023-02-09T10:10:44.878Z,16.05
2023-02-09T10:13:45.492Z,17.27
2023-02-09T10:16:19.446Z,16.30
2023-02-09T10:18:55.437Z,16.58
2023-02-09T10:21:25.950Z,15.88
2023-02-09T10:24:02.668Z,18.00
2023-02-09T10:26:33.500Z,17.85
2023-02-09T10:29:14.476Z,18.55
2023-02-09T10:31:52.117Z,18.02
2023-02-09T10:34:24.766Z,19.48
2023-02-09T10:36:52.532Z,18.60
2023-02-09T10:39:29.770Z,19.52
2023-02-09T10:42:02.506Z,17.83
2023-02-09T10:44:37.569Z,17.30
2023-02-09T10:47:28.342Z,18.83
2023-02-09T10:50:14.739Z,16.98
2023-02-09T10:52:59.404Z,19.30
2023-02-09T10:55:42.759Z,19.00
2023-02-09T10:58:10.470Z,18.65
2023-02-09T11:01:07.924Z,18.37
2023-02-09T11:03:37.103Z,18.42
2023-02-09T11:06:16.817Z,17.50
2023-02-09T11:08:47.304Z,19.87
2023-02-09T11:11:34.249Z,18.37
2023-02-09T11:14:02.527Z,17.30
2023-02-09T11:16:45.696Z,16.87
2023-02-09T11:19:27.488Z,17.37
2023-02-09T11:22:16.197Z,16.40
2023-02-09T11:25:01.702Z,17.83
2023-02-09T11:27:45.155Z,16.87
2023-02-09T11:30:12.762Z,18.15
2023-02-09T11:32:51.321Z,17.60
2023-02-09T11:35:20.409Z,18.80
2023-02-09T11:38:00.172Z,17.70
2023-02-09T11:40:59.828Z,17.70
2023-02-09T11:43:42.296Z,17.52
2023-02-09T11:46:22.140Z,16.60
2023-02-09T11:49:19.034Z,15.75
2023-02-09T11:51:49.243Z,16.50
2023-02-09T11:54:24.167Z,17.87
2023-02-09T11:56:56.970Z,17.65
2023-02-09T11:59:34.130Z,17.95
2023-02-09T12:02:29.540Z,18.40
2023-02-09T12:05:02.123Z,17.77
2023-02-09T12:07:33.310Z,17.67
2023-02-09T12:10:25.844Z,18.23
2023-02-09T12:13:08.349Z,17.65
2023-02-09T12:15:58.686Z,17.17
2023-02-09T12:18:30.044Z,17.80
2023-02-09T12:21:08.469Z,18.33
2023-02-09T12:23:40.382Z,19.60
2023-02-09T12:26:14.310Z,18.00
2023-02-09T12:28:47.499Z,18.70
2023-02-09T12:31:23.474Z,18.15
2023-02-09T12:34:01.621Z,18.85
2023-02-09T12:36:32.710Z,18.37
2023-02-09T12:39:24.196Z,18.73
2023-02-09T12:41:52.051Z,17.85
2023-02-09T12:44:20.709Z,18.85
2023-02-09T12:46:57.061Z,20.30
2023-02-09T12:49:30.660Z,18.58
2023-02-09T12:52:11.495Z,18.55
2023-02-09T12:54:59.502Z,20.25
2023-02-09T12:57:27.271Z,17.37
2023-02-09T12:59:56.428Z,18.42
2023-02-09T13:02:39.333Z,17.48
2023-02-09T13:05:30.100Z,18.00
2023-02-09T13:08:06.926Z,17.50
2023-02-09T13:11:22.223Z,18.30
2023-02-09T13:14:05.260Z,19.58
2023-02-09T13:16:54.755Z,17.90
2023-02-09T13:19:36.450Z,18.92
2023-02-09T13:22:41.017Z,17.52
2023-02-09T13:25:27.999Z,17.45
2023-02-09T13:27:55.842Z,18.05
2023-02-09T13:30:32.049Z,18.58
2023-02-09T13:33:19.039Z,16.83
2023-02-09T13:36:02.158Z,18.40
2023-02-09T13:38:34.013Z,18.60
2023-02-09T13:41:02.117Z,18.23
2023-02-09T13:43:32.886Z,18.23
2023-02-09T13:46:03.390Z,18.80
2023-02-09T13:48:37.727Z,18.30
2023-02-09T13:51:17.584Z,17.60
2023-02-09T13:54:03.158Z,17.20
2023-02-09T13:56:33.515Z,17.33
2023-02-09T13:59:02.234Z,18.42
2023-02-09T14:01:34.857Z,17.52
2023-02-09T14:04:14.380Z,17.90
2023-02-09T14:07:02.605Z,18.15
2023-02-09T14:09:45.068Z,17.30
2023-02-09T14:12:19.958Z,17.17
2023-02-09T14:15:15.302Z,17.25
2023-02-09T14:17:52.620Z,18.10
2023-02-09T14:20:24.363Z,18.08
2023-02-09T14:23:00.882Z,19.33
2023-02-09T14:25:31.093Z,17.55
2023-02-09T14:27:59.473Z,17.40
2023-02-09T14:30:37.299Z,17.27
2023-02-09T14:33:05.161Z,18.15
2023-02-09T14:35:39.906Z,17.37
2023-02-09T14:38:37.949Z,17.17
2023-02-09T14:41:31.767Z,17.30
2023-02-09T14:44:01.889Z,17.15
2023-02-09T14:46:30.360Z,18.48
2023-02-09T14:48:59.136Z,16.83
2023-02-09T14:51:28.732Z,17.98
2023-02-09T14:53:56.519Z,17.30
2023-02-09T14:56:31.575Z,18.45
2023-02-09T14:58:59.298Z,17.77
2023-02-09T15:01:27.068Z,17.62
2023-02-09T15:03:54.879Z,17.15
2023-02-09T15:06:23.209Z,18.60
2023-02-09T15:08:51.153Z,18.48
2023-02-09T15:11:42.830Z,17.12
2023-02-09T15:14:12.435Z,16.75
2023-02-09T15:16:40.195Z,17.95
2023-02-09T15:19:14.728Z,16.92
2023-02-09T15:21:42.390Z,17.37
2023-02-09T15:24:10.078Z,16.45
2023-02-09T15:26:38.384Z,16.98
2023-02-09T15:29:17.793Z,17.17
2023-02-09T15:31:45.555Z,17.70
2023-02-09T15:34:14.714Z,16.77
2023-02-09T15:36:43.535Z,17.83
2023-02-09T15:39:24.373Z,16.90
2023-02-09T15:42:10.899Z,16.52
2023-02-09T15:44:57.400Z,16.52
2023-02-09T15:47:43.516Z,16.05
2023-02-09T15:50:11.175Z,15.88
2023-02-09T15:52:38.936Z,16.30
2023-02-09T15:55:07.174Z,16.87
2023-02-09T15:57:34.884Z,16.90
2023-02-09T16:00:02.643Z,15.32
2023-02-09T16:02:30.434Z,16.77
2023-02-09T16:04:58.086Z,15.63
2023-02-09T16:07:27.451Z,15.52
2023-02-09T16:09:55.198Z,16.25
2023-02-09T16:12:22.969Z,17.48
2023-02-09T16:14:52.942Z,17.33
2023-02-09T16:17:20.970Z,16.27
2023-02-09T16:19:50.166Z,16.70
2023-02-09T16:22:18.143Z,16.25
2023-02-09T16:24:47.399Z,17.00
2023-02-09T16:27:25.466Z,16.35
2023-02-09T16:29:53.208Z,15.50
2023-02-09T16:32:24.108Z,15.55
2023-02-09T16:34:52.553Z,16.00
2023-02-09T16:37:30.078Z,17.27
2023-02-09T16:39:59.385Z,16.95
2023-02-09T16:42:27.132Z,18.15
2023-02-09T16:44:54.860Z,17.42
2023-02-09T16:47:27.141Z,15.93
2023-02-09T16:50:02.286Z,16.80
2023-02-09T16:52:31.378Z,16.77
2023-02-09T16:55:02.031Z,15.50
2023-02-09T16:57:30.402Z,16.42
2023-02-09T16:59:58.089Z,17.85
2023-02-09T17:02:44.825Z,16.37
2023-02-09T17:05:20.971Z,15.70
2023-02-09T17:07:55.332Z,17.20
2023-02-09T17:10:26.885Z,15.73
2023-02-09T17:12:54.730Z,16.48
2023-02-09T17:15:30.479Z,16.75
2023-02-09T17:18:07.380Z,17.05
2023-02-09T17:20:45.897Z,19.12
2023-02-09T17:23:22.877Z,17.65
2023-02-09T17:25:52.825Z,17.17
2023-02-09T17:28:20.802Z,17.92
2023-02-09T17:30:51.345Z,18.27
2023-02-09T17:33:27.353Z,18.42
2023-02-09T17:36:24.482Z,18.08
2023-02-09T17:38:46.174Z,17.45
2023-02-09T17:41:17.691Z,17.73
2023-02-09T17:43:45.855Z,17.20
2023-02-09T17:46:17.609Z,18.40
2023-02-09T17:48:46.806Z,18.70
2023-02-09T17:51:23.007Z,20.17
2023-02-09T17:53:50.733Z,21.58
2023-02-09T17:56:19.521Z,19.83
2023-02-09T17:58:48.115Z,18.87
2023-02-09T18:01:28.908Z,19.77
2023-02-09T18:03:59.564Z,18.55
2023-02-09T18:06:37.468Z,19.55
2023-02-09T18:09:08.356Z,18.60
2023-02-09T18:11:57.889Z,18.95
2023-02-09T18:14:27.444Z,19.30
2023-02-09T18:16:56.184Z,18.62
2023-02-09T18:19:25.265Z,21.58
2023-02-09T18:21:54.048Z,19.27
2023-02-09T18:24:23.769Z,18.52
2023-02-09T18:26:52.211Z,18.52
2023-02-09T18:29:30.267Z,20.90
2023-02-09T18:32:02.112Z,19.30
2023-02-09T18:34:30.353Z,19.73
2023-02-09T18:36:58.479Z,20.05
2023-02-09T18:39:26.366Z,20.27
2023-02-09T18:41:56.865Z,20.58
2023-02-09T18:44:29.638Z,19.90
2023-02-09T18:46:59.310Z,22.60
2023-02-09T18:49:27.372Z,19.45
2023-02-09T18:51:55.080Z,21.08
2023-02-09T18:54:22.977Z,21.10
2023-02-09T18:56:50.782Z,20.58
2023-02-09T18:59:19.194Z,21.17
2023-02-09T19:01:47.638Z,20.98
2023-02-09T19:04:15.338Z,20.60
2023-02-09T19:06:42.993Z,22.08
2023-02-09T19:09:10.742Z,21.62
2023-02-09T19:11:38.467Z,20.00
2023-02-09T19:14:24.752Z,20.52
2023-02-09T19:16:52.433Z,22.00
2023-02-09T19:19:20.981Z,20.65
2023-02-09T19:21:48.951Z,20.12
2023-02-09T19:24:16.828Z,20.17
2023-02-09T19:26:44.667Z,22.10
2023-02-09T19:29:12.343Z,19.67
2023-02-09T19:31:40.101Z,20.35
2023-02-09T19:34:07.890Z,20.90
2023-02-09T19:36:35.678Z,21.92
2023-02-09T19:39:03.527Z,21.85
2023-02-09T19:41:31.366Z,22.50
2023-02-09T19:43:59.393Z,23.23
2023-02-09T19:46:27.441Z,22.55
2023-02-09T19:48:55.110Z,22.02
2023-02-09T19:51:23.691Z,21.55
2023-02-09T19:53:51.899Z,20.92
2023-02-09T19:56:24.641Z,18.92
2023-02-09T19:58:52.894Z,18.33
2023-02-09T20:01:21.000Z,17.10
2023-02-09T20:03:53.427Z,18.95
2023-02-09T20:06:21.118Z,16.05
2023-02-09T20:08:49.217Z,15.55
2023-02-09T20:11:20.091Z,13.88
2023-02-09T20:13:53.380Z,17.15
2023-02-09T20:16:26.272Z,16.05
2023-02-09T20:18:55.081Z,16.92
2023-02-09T20:21:24.378Z,15.90
2023-02-09T20:23:56.738Z,15.27
2023-02-09T20:26:30.128Z,14.63
2023-02-09T20:28:58.779Z,20.05
2023-02-09T20:31:29.165Z,19.08
2023-02-09T20:33:57.511Z,18.00
2023-02-09T20:36:25.997Z,19.83
2023-02-09T20:38:54.061Z,17.58
2023-02-09T20:41:22.177Z,17.35
2023-02-09T20:44:08.663Z,16.20
2023-02-09T20:46:55.053Z,17.02
2023-02-09T20:49:25.257Z,17.52
2023-02-09T20:51:53.000Z,16.67
2023-02-09T20:54:21.169Z,16.33
2023-02-09T20:56:48.960Z,16.85
2023-02-09T20:59:17.080Z,19.45
2023-02-09T21:01:45.212Z,16.80
2023-02-09T21:04:12.969Z,18.05
2023-02-09T21:06:41.018Z,17.27
2023-02-09T21:09:11.940Z,17.15
2023-02-09T21:11:39.817Z,16.85
2023-02-09T21:14:07.600Z,20.12
2023-02-09T21:16:37.722Z,18.85
2023-02-09T21:19:05.864Z,18.83
2023-02-09T21:21:33.624Z,19.90
2023-02-09T21:24:01.646Z,18.15
2023-02-09T21:26:31.201Z,19.42
2023-02-09T21:28:59.550Z,18.73
2023-02-09T21:31:29.502Z,20.77
2023-02-09T21:33:57.406Z,20.75
2023-02-09T21:36:25.227Z,18.83
2023-02-09T21:38:52.936Z,18.23
2023-02-09T21:41:42.279Z,19.70
2023-02-09T21:44:16.699Z,19.05
2023-02-09T21:46:44.497Z,17.67
2023-02-09T21:49:13.641Z,17.98
2023-02-09T21:51:43.025Z,16.52
2023-02-09T21:54:16.186Z,16.85
2023-02-09T21:56:44.377Z,16.30
2023-02-09T21:59:12.077Z,15.20
2023-02-09T22:01:40.575Z,15.95
2023-02-09T22:04:08.361Z,14.55
2023-02-09T22:06:36.180Z,16.65
2023-02-09T22:09:04.891Z,15.77
2023-02-09T22:11:32.599Z,16.02
2023-02-09T22:14:00.460Z,13.93
2023-02-09T22:16:28.333Z,15.15
2023-02-09T22:18:56.111Z,16.12
2023-02-09T22:21:23.905Z,15.75
2023-02-09T22:23:54.043Z,16.98
2023-02-09T22:26:22.001Z,16.85
2023-02-09T22:28:49.939Z,15.40
2023-02-09T22:31:20.424Z,18.35
2023-02-09T22:33:49.115Z,18.87
2023-02-09T22:36:19.350Z,19.10
2023-02-09T22:38:47.725Z,17.42
2023-02-09T22:41:24.126Z,18.20
2023-02-09T22:44:01.879Z,17.85
2023-02-09T22:46:39.121Z,16.17
2023-02-09T22:49:13.216Z,15.00
2023-02-09T22:51:40.975Z,15.88
2023-02-09T22:54:08.611Z,16.80
2023-02-09T22:56:36.590Z,17.05
2023-02-09T22:59:04.384Z,15.43
2023-02-09T23:01:32.912Z,15.23
2023-02-09T23:04:00.707Z,14.43
2023-02-09T23:06:31.041Z,14.05
2023-02-09T23:09:04.949Z,15.10
2023-02-09T23:11:33.094Z,15.40
2023-02-09T23:14:10.522Z,15.93
2023-02-09T23:16:40.136Z,14.32
2023-02-09T23:19:10.058Z,13.80
2023-02-09T23:21:40.371Z,13.62
2023-02-09T23:24:09.145Z,12.13
2023-02-09T23:26:37.942Z,13.05
2023-02-09T23:29:08.634Z,14.98
2023-02-09T23:31:37.353Z,13.43
2023-02-09T23:34:05.828Z,12.55
2023-02-09T23:36:35.557Z,12.65
2023-02-09T23:39:06.483Z,13.40
2023-02-09T23:41:35.283Z,13.88
2023-02-09T23:44:04.131Z,13.07
2023-02-09T23:46:31.881Z,18.37
2023-02-09T23:48:59.960Z,18.55
2023-02-09T23:51:34.012Z,12.00
2023-02-09T23:54:03.772Z,14.55
2023-02-09T23:56:37.912Z,17.95
2023-02-09T23:59:07.916Z,15.85
